sensor_id;sensor_type;location;lat;lon;timestamp;P1;durP1;ratioP1;P2;durP2;ratioP2
13584;SDS011;6863;48.402;9.994;2023-07-29T00:01:25;7.03;;;6.32;;
13584;SDS011;6863;48.402;9.994;2023-07-29T00:03:51;7.82;;;6.40;;
13584;SDS011;6863;48.402;9.994;2023-07-29T00:06:16;8.95;;;6.97;;
13584;SDS011;6863;48.402;9.994;2023-07-29T00:08:42;7.70;;;7.00;;
13584;SDS011;6863;48.402;9.994;2023-07-29T00:11:07;9.05;;;8.07;;
13584;SDS011;6863;48.402;9.994;2023-07-29T00:13:33;8.10;;;6.90;;
13584;SDS011;6863;48.402;9.994;2023-07-29T00:15:58;9.80;;;8.67;;
13584;SDS011;6863;48.402;9.994;2023-07-29T00:18:24;9.67;;;7.77;;
13584;SDS011;6863;48.402;9.994;2023-07-29T00:20:50;10.47;;;8.63;;
13584;SDS011;6863;48.402;9.994;2023-07-29T00:23:16;8.90;;;8.00;;
13584;SDS011;6863;48.402;9.994;2023-07-29T00:25:43;12.13;;;9.53;;
13584;SDS011;6863;48.402;9.994;2023-07-29T00:28:11;10.10;;;9.10;;
13584;SDS011;6863;48.402;9.994;2023-07-29T00:30:37;11.40;;;10.20;;
13584;SDS011;6863;48.402;9.994;2023-07-29T00:33:02;10.87;;;9.60;;
13584;SDS011;6863;48.402;9.994;2023-07-29T00:35:28;9.90;;;8.90;;
13584;SDS011;6863;48.402;9.994;2023-07-29T00:37:53;10.73;;;9.17;;
13584;SDS011;6863;48.402;9.994;2023-07-29T00:40:19;12.73;;;9.30;;
13584;SDS011;6863;48.402;9.994;2023-07-29T00:42:47;11.07;;;9.97;;
13584;SDS011;6863;48.402;9.994;2023-07-29T00:45:12;11.97;;;10.30;;
13584;SDS011;6863;48.402;9.994;2023-07-29T00:47:38;11.37;;;9.90;;
13584;SDS011;6863;48.402;9.994;2023-07-29T00:50:05;11.83;;;10.30;;
13584;SDS011;6863;48.402;9.994;2023-07-29T00:52:32;11.73;;;9.77;;
13584;SDS011;6863;48.402;9.994;2023-07-29T00:54:58;12.20;;;10.27;;
13584;SDS011;6863;48.402;9.994;2023-07-29T00:57:24;11.93;;;9.97;;
13584;SDS011;6863;48.402;9.994;2023-07-29T00:59:51;10.00;;;8.90;;
13584;SDS011;6863;48.402;9.994;2023-07-29T01:02:17;10.67;;;9.63;;
13584;SDS011;6863;48.402;9.994;2023-07-29T01:04:42;10.10;;;9.07;;
13584;SDS011;6863;48.402;9.994;2023-07-29T01:07:12;10.57;;;9.47;;
13584;SDS011;6863;48.402;9.994;2023-07-29T01:10:02;10.30;;;9.30;;
13584;SDS011;6863;48.402;9.994;2023-07-29T01:15:22;12.20;;;10.93;;
13584;SDS011;6863;48.402;9.994;2023-07-29T01:17:54;10.27;;;9.27;;
13584;SDS011;6863;48.402;9.994;2023-07-29T01:20:24;11.20;;;9.97;;
13584;SDS011;6863;48.402;9.994;2023-07-29T01:22:51;12.23;;;10.07;;
13584;SDS011;6863;48.402;9.994;2023-07-29T01:25:16;13.77;;;10.27;;
13584;SDS011;6863;48.402;9.994;2023-07-29T01:27:44;18.33;;;12.60;;
13584;SDS011;6863;48.402;9.994;2023-07-29T01:30:10;19.93;;;13.17;;
13584;SDS011;6863;48.402;9.994;2023-07-29T01:32:42;15.43;;;11.43;;
13584;SDS011;6863;48.402;9.994;2023-07-29T01:37:57;24.37;;;14.77;;
13584;SDS011;6863;48.402;9.994;2023-07-29T01:40:27;20.53;;;13.33;;
13584;SDS011;6863;48.402;9.994;2023-07-29T01:42:53;18.80;;;13.23;;
13584;SDS011;6863;48.402;9.994;2023-07-29T01:45:21;15.67;;;11.53;;
13584;SDS011;6863;48.402;9.994;2023-07-29T01:47:49;16.73;;;11.97;;
13584;SDS011;6863;48.402;9.994;2023-07-29T01:50:14;17.73;;;12.87;;
13584;SDS011;6863;48.402;9.994;2023-07-29T01:52:40;15.43;;;11.70;;
13584;SDS011;6863;48.402;9.994;2023-07-29T01:55:05;14.20;;;11.23;;
13584;SDS011;6863;48.402;9.994;2023-07-29T01:57:31;15.63;;;11.47;;
13584;SDS011;6863;48.402;9.994;2023-07-29T01:59:57;13.43;;;10.73;;
13584;SDS011;6863;48.402;9.994;2023-07-29T02:02:22;13.37;;;10.70;;
13584;SDS011;6863;48.402;9.994;2023-07-29T02:04:48;14.70;;;10.57;;
13584;SDS011;6863;48.402;9.994;2023-07-29T02:07:16;13.67;;;10.60;;
13584;SDS011;6863;48.402;9.994;2023-07-29T02:09:43;11.50;;;9.60;;
13584;SDS011;6863;48.402;9.994;2023-07-29T02:12:08;11.57;;;9.50;;
13584;SDS011;6863;48.402;9.994;2023-07-29T02:14:37;10.73;;;9.30;;
13584;SDS011;6863;48.402;9.994;2023-07-29T02:17:02;11.87;;;9.20;;
13584;SDS011;6863;48.402;9.994;2023-07-29T02:19:28;12.93;;;9.27;;
13584;SDS011;6863;48.402;9.994;2023-07-29T02:21:54;11.68;;;8.80;;
13584;SDS011;6863;48.402;9.994;2023-07-29T02:24:19;11.27;;;8.67;;
13584;SDS011;6863;48.402;9.994;2023-07-29T02:26:45;11.87;;;9.00;;
13584;SDS011;6863;48.402;9.994;2023-07-29T02:29:10;12.17;;;9.40;;
13584;SDS011;6863;48.402;9.994;2023-07-29T02:31:36;10.53;;;8.50;;
13584;SDS011;6863;48.402;9.994;2023-07-29T02:34:02;10.67;;;8.97;;
13584;SDS011;6863;48.402;9.994;2023-07-29T02:36:29;9.80;;;7.53;;
13584;SDS011;6863;48.402;9.994;2023-07-29T02:38:54;11.33;;;7.97;;
13584;SDS011;6863;48.402;9.994;2023-07-29T02:41:20;11.87;;;10.07;;
13584;SDS011;6863;48.402;9.994;2023-07-29T02:43:49;11.17;;;9.43;;
13584;SDS011;6863;48.402;9.994;2023-07-29T02:46:15;10.33;;;9.23;;
13584;SDS011;6863;48.402;9.994;2023-07-29T02:48:41;11.07;;;9.00;;
13584;SDS011;6863;48.402;9.994;2023-07-29T02:51:07;15.03;;;10.27;;
13584;SDS011;6863;48.402;9.994;2023-07-29T02:53:33;17.07;;;13.23;;
13584;SDS011;6863;48.402;9.994;2023-07-29T02:55:58;16.23;;;13.20;;
13584;SDS011;6863;48.402;9.994;2023-07-29T02:58:24;16.33;;;12.50;;
13584;SDS011;6863;48.402;9.994;2023-07-29T03:00:51;15.47;;;13.33;;
13584;SDS011;6863;48.402;9.994;2023-07-29T03:03:17;15.30;;;12.90;;
13584;SDS011;6863;48.402;9.994;2023-07-29T03:05:43;15.07;;;12.93;;
13584;SDS011;6863;48.402;9.994;2023-07-29T03:08:09;14.33;;;12.77;;
13584;SDS011;6863;48.402;9.994;2023-07-29T03:10:35;18.03;;;13.63;;
13584;SDS011;6863;48.402;9.994;2023-07-29T03:13:01;18.23;;;14.07;;
13584;SDS011;6863;48.402;9.994;2023-07-29T03:15:27;18.07;;;13.57;;
13584;SDS011;6863;48.402;9.994;2023-07-29T03:17:53;16.27;;;13.10;;
13584;SDS011;6863;48.402;9.994;2023-07-29T03:20:19;19.70;;;14.37;;
13584;SDS011;6863;48.402;9.994;2023-07-29T03:22:45;22.83;;;15.63;;
13584;SDS011;6863;48.402;9.994;2023-07-29T03:25:10;23.33;;;15.67;;
13584;SDS011;6863;48.402;9.994;2023-07-29T03:27:36;22.73;;;16.17;;
13584;SDS011;6863;48.402;9.994;2023-07-29T03:30:05;21.87;;;15.63;;
13584;SDS011;6863;48.402;9.994;2023-07-29T03:32:32;22.00;;;15.80;;
13584;SDS011;6863;48.402;9.994;2023-07-29T03:34:57;25.67;;;16.90;;
13584;SDS011;6863;48.402;9.994;2023-07-29T03:37:23;22.53;;;16.63;;
13584;SDS011;6863;48.402;9.994;2023-07-29T03:39:49;22.63;;;16.70;;
13584;SDS011;6863;48.402;9.994;2023-07-29T03:42:17;22.90;;;16.40;;
13584;SDS011;6863;48.402;9.994;2023-07-29T03:44:42;22.47;;;17.30;;
13584;SDS011;6863;48.402;9.994;2023-07-29T03:47:08;22.07;;;16.77;;
13584;SDS011;6863;48.402;9.994;2023-07-29T03:49:33;24.23;;;17.27;;
13584;SDS011;6863;48.402;9.994;2023-07-29T03:51:59;21.60;;;16.47;;
13584;SDS011;6863;48.402;9.994;2023-07-29T03:54:24;20.27;;;16.57;;
13584;SDS011;6863;48.402;9.994;2023-07-29T03:56:51;20.73;;;16.07;;
13584;SDS011;6863;48.402;9.994;2023-07-29T04:01:42;20.80;;;15.87;;
13584;SDS011;6863;48.402;9.994;2023-07-29T04:04:10;17.87;;;15.00;;
13584;SDS011;6863;48.402;9.994;2023-07-29T04:06:36;17.67;;;14.70;;
13584;SDS011;6863;48.402;9.994;2023-07-29T04:09:01;18.30;;;15.33;;
13584;SDS011;6863;48.402;9.994;2023-07-29T04:11:27;17.60;;;14.70;;
13584;SDS011;6863;48.402;9.994;2023-07-29T04:13:53;17.20;;;14.37;;
13584;SDS011;6863;48.402;9.994;2023-07-29T04:16:18;16.53;;;14.27;;
13584;SDS011;6863;48.402;9.994;2023-07-29T04:18:44;15.50;;;13.13;;
13584;SDS011;6863;48.402;9.994;2023-07-29T04:21:10;14.83;;;12.80;;
13584;SDS011;6863;48.402;9.994;2023-07-29T04:23:35;14.90;;;13.07;;
13584;SDS011;6863;48.402;9.994;2023-07-29T04:26:01;14.57;;;11.87;;
13584;SDS011;6863;48.402;9.994;2023-07-29T04:28:27;14.13;;;12.70;;
13584;SDS011;6863;48.402;9.994;2023-07-29T04:30:52;15.17;;;12.90;;
13584;SDS011;6863;48.402;9.994;2023-07-29T04:33:18;14.97;;;12.30;;
13584;SDS011;6863;48.402;9.994;2023-07-29T04:35:43;16.63;;;13.43;;
13584;SDS011;6863;48.402;9.994;2023-07-29T04:38:09;15.80;;;13.73;;
13584;SDS011;6863;48.402;9.994;2023-07-29T04:40:34;18.77;;;14.90;;
13584;SDS011;6863;48.402;9.994;2023-07-29T04:43:00;16.07;;;14.37;;
13584;SDS011;6863;48.402;9.994;2023-07-29T04:45:29;18.17;;;15.17;;
13584;SDS011;6863;48.402;9.994;2023-07-29T04:47:55;17.93;;;14.90;;
13584;SDS011;6863;48.402;9.994;2023-07-29T04:50:21;17.00;;;14.00;;
13584;SDS011;6863;48.402;9.994;2023-07-29T04:52:47;16.47;;;13.90;;
13584;SDS011;6863;48.402;9.994;2023-07-29T04:55:13;16.63;;;13.90;;
13584;SDS011;6863;48.402;9.994;2023-07-29T04:57:38;15.30;;;13.70;;
13584;SDS011;6863;48.402;9.994;2023-07-29T05:00:04;14.27;;;12.80;;
13584;SDS011;6863;48.402;9.994;2023-07-29T05:02:30;14.13;;;12.52;;
13584;SDS011;6863;48.402;9.994;2023-07-29T05:04:55;14.20;;;12.82;;
13584;SDS011;6863;48.402;9.994;2023-07-29T05:07:21;15.38;;;13.88;;
13584;SDS011;6863;48.402;9.994;2023-07-29T05:09:47;14.13;;;12.52;;
13584;SDS011;6863;48.402;9.994;2023-07-29T05:12:13;12.93;;;11.63;;
13584;SDS011;6863;48.402;9.994;2023-07-29T05:14:38;13.73;;;12.50;;
13584;SDS011;6863;48.402;9.994;2023-07-29T05:17:04;13.40;;;11.85;;
13584;SDS011;6863;48.402;9.994;2023-07-29T05:19:30;12.32;;;11.02;;
13584;SDS011;6863;48.402;9.994;2023-07-29T05:21:56;11.50;;;9.55;;
13584;SDS011;6863;48.402;9.994;2023-07-29T05:24:22;10.23;;;9.20;;
13584;SDS011;6863;48.402;9.994;2023-07-29T05:26:48;11.82;;;10.63;;
13584;SDS011;6863;48.402;9.994;2023-07-29T05:29:14;9.77;;;8.88;;
13584;SDS011;6863;48.402;9.994;2023-07-29T05:31:39;9.75;;;8.85;;
13584;SDS011;6863;48.402;9.994;2023-07-29T05:34:05;10.65;;;9.07;;
13584;SDS011;6863;48.402;9.994;2023-07-29T05:36:31;10.95;;;9.80;;
13584;SDS011;6863;48.402;9.994;2023-07-29T05:38:56;10.43;;;9.40;;
13584;SDS011;6863;48.402;9.994;2023-07-29T05:41:22;11.20;;;10.10;;
13584;SDS011;6863;48.402;9.994;2023-07-29T05:43:48;9.80;;;8.85;;
13584;SDS011;6863;48.402;9.994;2023-07-29T05:46:13;10.77;;;9.73;;
13584;SDS011;6863;48.402;9.994;2023-07-29T05:48:39;10.15;;;9.20;;
13584;SDS011;6863;48.402;9.994;2023-07-29T05:51:05;9.23;;;8.45;;
13584;SDS011;6863;48.402;9.994;2023-07-29T05:53:30;10.52;;;9.40;;
13584;SDS011;6863;48.402;9.994;2023-07-29T05:55:56;9.70;;;8.88;;
13584;SDS011;6863;48.402;9.994;2023-07-29T05:58:22;10.50;;;9.50;;
13584;SDS011;6863;48.402;9.994;2023-07-29T06:00:47;9.77;;;8.88;;
13584;SDS011;6863;48.402;9.994;2023-07-29T06:03:13;10.13;;;9.02;;
13584;SDS011;6863;48.402;9.994;2023-07-29T06:05:39;9.90;;;8.93;;
13584;SDS011;6863;48.402;9.994;2023-07-29T06:08:04;10.52;;;9.48;;
13584;SDS011;6863;48.402;9.994;2023-07-29T06:10:30;10.20;;;9.20;;
13584;SDS011;6863;48.402;9.994;2023-07-29T06:12:55;11.48;;;9.38;;
13584;SDS011;6863;48.402;9.994;2023-07-29T06:15:21;9.23;;;8.32;;
13584;SDS011;6863;48.402;9.994;2023-07-29T06:17:47;10.07;;;9.18;;
13584;SDS011;6863;48.402;9.994;2023-07-29T06:20:14;10.27;;;9.27;;
13584;SDS011;6863;48.402;9.994;2023-07-29T06:22:39;8.60;;;7.80;;
13584;SDS011;6863;48.402;9.994;2023-07-29T06:25:06;9.07;;;8.15;;
13584;SDS011;6863;48.402;9.994;2023-07-29T06:27:31;8.45;;;7.65;;
13584;SDS011;6863;48.402;9.994;2023-07-29T06:29:57;8.40;;;7.60;;
13584;SDS011;6863;48.402;9.994;2023-07-29T06:32:22;8.18;;;7.30;;
13584;SDS011;6863;48.402;9.994;2023-07-29T06:34:48;9.15;;;6.75;;
13584;SDS011;6863;48.402;9.994;2023-07-29T06:37:13;8.88;;;6.57;;
13584;SDS011;6863;48.402;9.994;2023-07-29T06:39:39;6.28;;;5.68;;
13584;SDS011;6863;48.402;9.994;2023-07-29T06:42:05;6.95;;;6.35;;
13584;SDS011;6863;48.402;9.994;2023-07-29T06:44:30;6.07;;;5.57;;
13584;SDS011;6863;48.402;9.994;2023-07-29T06:46:57;6.40;;;5.80;;
13584;SDS011;6863;48.402;9.994;2023-07-29T06:49:23;6.68;;;5.70;;
13584;SDS011;6863;48.402;9.994;2023-07-29T06:51:48;6.65;;;6.05;;
13584;SDS011;6863;48.402;9.994;2023-07-29T06:54:15;5.97;;;5.38;;
13584;SDS011;6863;48.402;9.994;2023-07-29T06:56:41;5.35;;;4.88;;
13584;SDS011;6863;48.402;9.994;2023-07-29T06:59:07;5.68;;;5.18;;
13584;SDS011;6863;48.402;9.994;2023-07-29T07:01:33;5.72;;;5.13;;
13584;SDS011;6863;48.402;9.994;2023-07-29T07:03:59;5.57;;;5.03;;
13584;SDS011;6863;48.402;9.994;2023-07-29T07:06:24;5.55;;;5.05;;
13584;SDS011;6863;48.402;9.994;2023-07-29T07:08:50;6.45;;;4.75;;
13584;SDS011;6863;48.402;9.994;2023-07-29T07:11:16;5.97;;;5.38;;
13584;SDS011;6863;48.402;9.994;2023-07-29T07:13:43;5.38;;;4.95;;
13584;SDS011;6863;48.402;9.994;2023-07-29T07:16:09;5.47;;;5.05;;
13584;SDS011;6863;48.402;9.994;2023-07-29T07:18:34;5.18;;;4.70;;
13584;SDS011;6863;48.402;9.994;2023-07-29T07:21:00;6.15;;;4.63;;
13584;SDS011;6863;48.402;9.994;2023-07-29T07:23:25;4.65;;;4.25;;
13584;SDS011;6863;48.402;9.994;2023-07-29T07:25:51;4.55;;;4.07;;
13584;SDS011;6863;48.402;9.994;2023-07-29T07:28:16;4.90;;;4.50;;
13584;SDS011;6863;48.402;9.994;2023-07-29T07:30:42;6.07;;;5.10;;
13584;SDS011;6863;48.402;9.994;2023-07-29T07:33:08;4.88;;;4.38;;
13584;SDS011;6863;48.402;9.994;2023-07-29T07:35:33;4.30;;;4.00;;
13584;SDS011;6863;48.402;9.994;2023-07-29T07:37:59;5.40;;;4.70;;
13584;SDS011;6863;48.402;9.994;2023-07-29T07:40:27;4.90;;;4.50;;
13584;SDS011;6863;48.402;9.994;2023-07-29T07:42:53;5.20;;;4.68;;
13584;SDS011;6863;48.402;9.994;2023-07-29T07:45:18;5.22;;;4.72;;
13584;SDS011;6863;48.402;9.994;2023-07-29T07:47:44;5.35;;;4.32;;
13584;SDS011;6863;48.402;9.994;2023-07-29T07:50:10;4.88;;;4.35;;
13584;SDS011;6863;48.402;9.994;2023-07-29T07:52:35;4.65;;;4.13;;
13584;SDS011;6863;48.402;9.994;2023-07-29T07:55:01;4.65;;;4.25;;
13584;SDS011;6863;48.402;9.994;2023-07-29T07:57:27;5.25;;;4.75;;
13584;SDS011;6863;48.402;9.994;2023-07-29T07:59:52;6.30;;;4.93;;
13584;SDS011;6863;48.402;9.994;2023-07-29T08:02:18;5.93;;;4.75;;
13584;SDS011;6863;48.402;9.994;2023-07-29T08:04:44;4.88;;;4.10;;
13584;SDS011;6863;48.402;9.994;2023-07-29T08:07:09;4.85;;;4.35;;
13584;SDS011;6863;48.402;9.994;2023-07-29T08:09:35;4.72;;;4.32;;
13584;SDS011;6863;48.402;9.994;2023-07-29T08:12:00;4.72;;;4.32;;
13584;SDS011;6863;48.402;9.994;2023-07-29T08:14:26;5.38;;;4.88;;
13584;SDS011;6863;48.402;9.994;2023-07-29T08:16:52;4.80;;;4.40;;
13584;SDS011;6863;48.402;9.994;2023-07-29T08:19:17;4.90;;;4.50;;
13584;SDS011;6863;48.402;9.994;2023-07-29T08:21:43;7.13;;;4.28;;
13584;SDS011;6863;48.402;9.994;2023-07-29T08:24:09;5.97;;;4.38;;
13584;SDS011;6863;48.402;9.994;2023-07-29T08:26:34;4.45;;;4.15;;
13584;SDS011;6863;48.402;9.994;2023-07-29T08:29:00;4.15;;;3.75;;
13584;SDS011;6863;48.402;9.994;2023-07-29T08:31:25;4.88;;;4.40;;
13584;SDS011;6863;48.402;9.994;2023-07-29T08:33:51;4.68;;;4.28;;
13584;SDS011;6863;48.402;9.994;2023-07-29T08:36:16;4.72;;;4.32;;
13584;SDS011;6863;48.402;9.994;2023-07-29T08:38:42;4.65;;;4.30;;
13584;SDS011;6863;48.402;9.994;2023-07-29T08:41:28;4.78;;;4.25;;
13584;SDS011;6863;48.402;9.994;2023-07-29T08:44:12;4.80;;;4.38;;
13584;SDS011;6863;48.402;9.994;2023-07-29T08:46:46;4.88;;;4.47;;
13584;SDS011;6863;48.402;9.994;2023-07-29T08:49:11;4.88;;;4.38;;
13584;SDS011;6863;48.402;9.994;2023-07-29T08:51:43;6.85;;;5.03;;
13584;SDS011;6863;48.402;9.994;2023-07-29T08:54:11;5.72;;;5.22;;
13584;SDS011;6863;48.402;9.994;2023-07-29T08:56:38;5.85;;;5.20;;
13584;SDS011;6863;48.402;9.994;2023-07-29T08:59:05;5.90;;;5.30;;
13584;SDS011;6863;48.402;9.994;2023-07-29T09:01:38;5.97;;;4.80;;
13584;SDS011;6863;48.402;9.994;2023-07-29T09:04:04;6.10;;;4.93;;
13584;SDS011;6863;48.402;9.994;2023-07-29T09:06:30;5.45;;;4.95;;
13584;SDS011;6863;48.402;9.994;2023-07-29T09:08:57;5.35;;;4.95;;
13584;SDS011;6863;48.402;9.994;2023-07-29T09:11:24;5.32;;;4.82;;
13584;SDS011;6863;48.402;9.994;2023-07-29T09:13:50;5.07;;;4.65;;
13584;SDS011;6863;48.402;9.994;2023-07-29T09:16:15;4.55;;;4.15;;
13584;SDS011;6863;48.402;9.994;2023-07-29T09:18:41;3.88;;;3.45;;
13584;SDS011;6863;48.402;9.994;2023-07-29T09:21:07;3.88;;;3.58;;
13584;SDS011;6863;48.402;9.994;2023-07-29T09:23:40;4.07;;;3.65;;
13584;SDS011;6863;48.402;9.994;2023-07-29T09:26:07;4.55;;;4.00;;
13584;SDS011;6863;48.402;9.994;2023-07-29T09:28:33;3.55;;;3.25;;
13584;SDS011;6863;48.402;9.994;2023-07-29T09:31:00;4.13;;;3.78;;
13584;SDS011;6863;48.402;9.994;2023-07-29T09:33:26;3.95;;;3.10;;
13584;SDS011;6863;48.402;9.994;2023-07-29T09:35:52;3.83;;;3.50;;
13584;SDS011;6863;48.402;9.994;2023-07-29T09:38:17;3.42;;;3.17;;
13584;SDS011;6863;48.402;9.994;2023-07-29T09:40:43;3.25;;;3.03;;
13584;SDS011;6863;48.402;9.994;2023-07-29T09:43:11;3.80;;;3.50;;
13584;SDS011;6863;48.402;9.994;2023-07-29T09:45:37;3.42;;;3.13;;
13584;SDS011;6863;48.402;9.994;2023-07-29T09:48:03;3.22;;;3.03;;
13584;SDS011;6863;48.402;9.994;2023-07-29T09:50:35;5.18;;;3.33;;
13584;SDS011;6863;48.402;9.994;2023-07-29T09:53:01;3.47;;;3.17;;
13584;SDS011;6863;48.402;9.994;2023-07-29T09:55:27;4.00;;;3.60;;
13584;SDS011;6863;48.402;9.994;2023-07-29T09:57:57;3.10;;;2.90;;
13584;SDS011;6863;48.402;9.994;2023-07-29T10:00:26;3.35;;;3.10;;
13584;SDS011;6863;48.402;9.994;2023-07-29T10:02:55;4.90;;;3.40;;
13584;SDS011;6863;48.402;9.994;2023-07-29T10:05:25;3.55;;;3.22;;
13584;SDS011;6863;48.402;9.994;2023-07-29T10:07:52;3.50;;;3.25;;
13584;SDS011;6863;48.402;9.994;2023-07-29T10:10:19;2.95;;;2.75;;
13584;SDS011;6863;48.402;9.994;2023-07-29T10:12:45;3.13;;;2.83;;
13584;SDS011;6863;48.402;9.994;2023-07-29T10:15:12;3.15;;;2.85;;
13584;SDS011;6863;48.402;9.994;2023-07-29T10:17:39;3.40;;;3.10;;
13584;SDS011;6863;48.402;9.994;2023-07-29T10:20:05;2.60;;;2.42;;
13584;SDS011;6863;48.402;9.994;2023-07-29T10:22:33;3.30;;;3.00;;
13584;SDS011;6863;48.402;9.994;2023-07-29T10:25:05;2.92;;;2.70;;
13584;SDS011;6863;48.402;9.994;2023-07-29T10:27:43;3.00;;;2.70;;
13584;SDS011;6863;48.402;9.994;2023-07-29T10:30:14;3.05;;;2.70;;
13584;SDS011;6863;48.402;9.994;2023-07-29T10:32:43;3.65;;;2.97;;
13584;SDS011;6863;48.402;9.994;2023-07-29T10:35:10;4.15;;;3.00;;
13584;SDS011;6863;48.402;9.994;2023-07-29T10:37:40;3.20;;;2.90;;
13584;SDS011;6863;48.402;9.994;2023-07-29T10:40:07;3.10;;;2.80;;
13584;SDS011;6863;48.402;9.994;2023-07-29T10:42:34;3.97;;;3.30;;
13584;SDS011;6863;48.402;9.994;2023-07-29T10:45:05;3.85;;;3.50;;
13584;SDS011;6863;48.402;9.994;2023-07-29T10:47:42;5.05;;;4.55;;
13584;SDS011;6863;48.402;9.994;2023-07-29T10:50:16;4.88;;;4.45;;
13584;SDS011;6863;48.402;9.994;2023-07-29T10:52:49;3.67;;;3.40;;
13584;SDS011;6863;48.402;9.994;2023-07-29T10:55:32;4.80;;;4.28;;
13584;SDS011;6863;48.402;9.994;2023-07-29T10:58:06;4.35;;;3.95;;
13584;SDS011;6863;48.402;9.994;2023-07-29T11:00:37;4.20;;;3.85;;
13584;SDS011;6863;48.402;9.994;2023-07-29T11:03:07;3.85;;;3.28;;
13584;SDS011;6863;48.402;9.994;2023-07-29T11:05:44;3.40;;;3.10;;
13584;SDS011;6863;48.402;9.994;2023-07-29T11:08:18;3.65;;;3.03;;
13584;SDS011;6863;48.402;9.994;2023-07-29T11:11:08;4.00;;;3.40;;
13584;SDS011;6863;48.402;9.994;2023-07-29T11:13:37;3.78;;;3.17;;
13584;SDS011;6863;48.402;9.994;2023-07-29T11:16:04;3.25;;;2.97;;
13584;SDS011;6863;48.402;9.994;2023-07-29T11:18:31;2.70;;;2.50;;
13584;SDS011;6863;48.402;9.994;2023-07-29T11:21:01;2.70;;;2.22;;
13584;SDS011;6863;48.402;9.994;2023-07-29T11:23:28;3.33;;;3.03;;
13584;SDS011;6863;48.402;9.994;2023-07-29T11:25:58;3.40;;;2.47;;
13584;SDS011;6863;48.402;9.994;2023-07-29T11:28:24;3.38;;;3.10;;
13584;SDS011;6863;48.402;9.994;2023-07-29T11:30:51;3.38;;;3.08;;
13584;SDS011;6863;48.402;9.994;2023-07-29T11:33:38;2.88;;;2.60;;
13584;SDS011;6863;48.402;9.994;2023-07-29T11:36:04;3.15;;;2.80;;
13584;SDS011;6863;48.402;9.994;2023-07-29T11:38:29;2.70;;;2.50;;
13584;SDS011;6863;48.402;9.994;2023-07-29T11:41:01;8.05;;;6.35;;
13584;SDS011;6863;48.402;9.994;2023-07-29T11:43:28;3.03;;;2.83;;
13584;SDS011;6863;48.402;9.994;2023-07-29T11:45:53;2.55;;;2.40;;
13584;SDS011;6863;48.402;9.994;2023-07-29T11:48:30;2.67;;;2.50;;
13584;SDS011;6863;48.402;9.994;2023-07-29T11:50:57;2.30;;;2.20;;
13584;SDS011;6863;48.402;9.994;2023-07-29T11:53:25;2.88;;;2.40;;
13584;SDS011;6863;48.402;9.994;2023-07-29T11:55:52;2.85;;;2.63;;
13584;SDS011;6863;48.402;9.994;2023-07-29T11:58:18;2.30;;;2.20;;
13584;SDS011;6863;48.402;9.994;2023-07-29T12:00:43;2.97;;;2.63;;
13584;SDS011;6863;48.402;9.994;2023-07-29T12:03:10;2.90;;;2.63;;
13584;SDS011;6863;48.402;9.994;2023-07-29T12:05:37;2.40;;;2.22;;
13584;SDS011;6863;48.402;9.994;2023-07-29T12:08:02;2.78;;;2.58;;
13584;SDS011;6863;48.402;9.994;2023-07-29T12:10:28;5.22;;;2.80;;
13584;SDS011;6863;48.402;9.994;2023-07-29T12:12:54;2.65;;;2.55;;
13584;SDS011;6863;48.402;9.994;2023-07-29T12:15:24;2.38;;;2.17;;
13584;SDS011;6863;48.402;9.994;2023-07-29T12:17:54;2.45;;;2.25;;
13584;SDS011;6863;48.402;9.994;2023-07-29T12:20:21;2.75;;;2.15;;
13584;SDS011;6863;48.402;9.994;2023-07-29T12:22:51;2.95;;;2.75;;
13584;SDS011;6863;48.402;9.994;2023-07-29T12:25:20;2.70;;;2.50;;
13584;SDS011;6863;48.402;9.994;2023-07-29T12:27:47;2.63;;;2.42;;
13584;SDS011;6863;48.402;9.994;2023-07-29T12:30:12;2.72;;;2.53;;
13584;SDS011;6863;48.402;9.994;2023-07-29T12:32:44;2.30;;;2.20;;
13584;SDS011;6863;48.402;9.994;2023-07-29T12:35:11;2.53;;;2.33;;
13584;SDS011;6863;48.402;9.994;2023-07-29T12:37:36;2.88;;;2.47;;
13584;SDS011;6863;48.402;9.994;2023-07-29T12:40:04;2.60;;;2.50;;
13584;SDS011;6863;48.402;9.994;2023-07-29T12:42:30;2.45;;;2.25;;
13584;SDS011;6863;48.402;9.994;2023-07-29T12:44:55;5.63;;;2.33;;
13584;SDS011;6863;48.402;9.994;2023-07-29T12:47:21;2.72;;;2.50;;
13584;SDS011;6863;48.402;9.994;2023-07-29T12:49:46;2.30;;;2.20;;
13584;SDS011;6863;48.402;9.994;2023-07-29T12:52:12;2.38;;;2.17;;
13584;SDS011;6863;48.402;9.994;2023-07-29T12:54:38;2.33;;;2.13;;
13584;SDS011;6863;48.402;9.994;2023-07-29T12:57:05;2.50;;;2.40;;
13584;SDS011;6863;48.402;9.994;2023-07-29T12:59:31;2.45;;;2.33;;
13584;SDS011;6863;48.402;9.994;2023-07-29T13:01:57;2.67;;;2.47;;
13584;SDS011;6863;48.402;9.994;2023-07-29T13:04:22;2.90;;;2.70;;
13584;SDS011;6863;48.402;9.994;2023-07-29T13:06:48;2.70;;;2.50;;
13584;SDS011;6863;48.402;9.994;2023-07-29T13:09:13;4.97;;;2.50;;
13584;SDS011;6863;48.402;9.994;2023-07-29T13:11:39;2.35;;;2.08;;
13584;SDS011;6863;48.402;9.994;2023-07-29T13:14:05;2.00;;;1.90;;
13584;SDS011;6863;48.402;9.994;2023-07-29T13:16:30;2.25;;;2.15;;
13584;SDS011;6863;48.402;9.994;2023-07-29T13:18:59;2.92;;;2.72;;
13584;SDS011;6863;48.402;9.994;2023-07-29T13:21:25;2.85;;;2.65;;
13584;SDS011;6863;48.402;9.994;2023-07-29T13:23:51;2.63;;;2.47;;
13584;SDS011;6863;48.402;9.994;2023-07-29T13:26:17;4.78;;;3.35;;
13584;SDS011;6863;48.402;9.994;2023-07-29T13:28:42;3.38;;;2.83;;
13584;SDS011;6863;48.402;9.994;2023-07-29T13:31:08;3.13;;;2.58;;
13584;SDS011;6863;48.402;9.994;2023-07-29T13:33:33;3.58;;;2.97;;
13584;SDS011;6863;48.402;9.994;2023-07-29T13:35:59;2.95;;;2.75;;
13584;SDS011;6863;48.402;9.994;2023-07-29T13:38:28;2.35;;;2.25;;
13584;SDS011;6863;48.402;9.994;2023-07-29T13:40:53;2.67;;;2.42;;
13584;SDS011;6863;48.402;9.994;2023-07-29T13:43:19;7.15;;;6.43;;
13584;SDS011;6863;48.402;9.994;2023-07-29T13:45:45;2.80;;;2.60;;
13584;SDS011;6863;48.402;9.994;2023-07-29T13:48:13;3.63;;;3.33;;
13584;SDS011;6863;48.402;9.994;2023-07-29T13:50:39;2.72;;;2.40;;
13584;SDS011;6863;48.402;9.994;2023-07-29T13:53:04;2.40;;;2.30;;
13584;SDS011;6863;48.402;9.994;2023-07-29T13:55:30;2.50;;;2.28;;
13584;SDS011;6863;48.402;9.994;2023-07-29T13:57:55;2.42;;;2.33;;
13584;SDS011;6863;48.402;9.994;2023-07-29T14:00:24;2.40;;;2.30;;
13584;SDS011;6863;48.402;9.994;2023-07-29T14:02:50;2.60;;;2.40;;
13584;SDS011;6863;48.402;9.994;2023-07-29T14:05:15;2.60;;;2.40;;
13584;SDS011;6863;48.402;9.994;2023-07-29T14:07:41;2.45;;;2.28;;
13584;SDS011;6863;48.402;9.994;2023-07-29T14:10:06;2.70;;;2.50;;
13584;SDS011;6863;48.402;9.994;2023-07-29T14:12:32;2.72;;;2.63;;
13584;SDS011;6863;48.402;9.994;2023-07-29T14:14:58;2.70;;;2.42;;
13584;SDS011;6863;48.402;9.994;2023-07-29T14:17:24;2.53;;;2.33;;
13584;SDS011;6863;48.402;9.994;2023-07-29T14:19:49;2.65;;;2.17;;
13584;SDS011;6863;48.402;9.994;2023-07-29T14:22:15;2.45;;;2.35;;
13584;SDS011;6863;48.402;9.994;2023-07-29T14:24:40;2.58;;;2.40;;
13584;SDS011;6863;48.402;9.994;2023-07-29T14:27:06;2.42;;;2.20;;
13584;SDS011;6863;48.402;9.994;2023-07-29T14:29:32;2.20;;;2.10;;
13584;SDS011;6863;48.402;9.994;2023-07-29T14:31:57;2.42;;;2.33;;
13584;SDS011;6863;48.402;9.994;2023-07-29T14:34:23;2.58;;;2.38;;
13584;SDS011;6863;48.402;9.994;2023-07-29T14:36:48;2.50;;;2.30;;
13584;SDS011;6863;48.402;9.994;2023-07-29T14:39:14;3.42;;;2.20;;
13584;SDS011;6863;48.402;9.994;2023-07-29T14:41:39;2.90;;;2.70;;
13584;SDS011;6863;48.402;9.994;2023-07-29T14:44:05;2.45;;;2.25;;
13584;SDS011;6863;48.402;9.994;2023-07-29T14:46:31;2.70;;;2.50;;
13584;SDS011;6863;48.402;9.994;2023-07-29T14:48:56;2.60;;;2.42;;
13584;SDS011;6863;48.402;9.994;2023-07-29T14:51:22;2.35;;;2.20;;
13584;SDS011;6863;48.402;9.994;2023-07-29T14:53:48;2.80;;;2.30;;
13584;SDS011;6863;48.402;9.994;2023-07-29T14:56:14;2.40;;;2.30;;
13584;SDS011;6863;48.402;9.994;2023-07-29T14:58:42;3.03;;;2.80;;